sensor_id;sensor_type;location;lat;lon;timestamp;P1;durP1;ratioP1;P2;durP2;ratioP2
20982;SDS011;10650;51.528;6.748;2023-03-14T00:00:53;10.23;;;4.25;;
20982;SDS011;10650;51.528;6.748;2023-03-14T00:03:21;10.60;;;4.35;;
20982;SDS011;10650;51.528;6.748;2023-03-14T00:05:49;11.48;;;3.85;;
20982;SDS011;10650;51.528;6.748;2023-03-14T00:08:16;13.25;;;3.80;;
20982;SDS011;10650;51.528;6.748;2023-03-14T00:10:45;9.40;;;3.95;;
20982;SDS011;10650;51.528;6.748;2023-03-14T00:13:13;7.28;;;3.03;;
20982;SDS011;10650;51.528;6.748;2023-03-14T00:15:42;9.60;;;3.70;;
20982;SDS011;10650;51.528;6.748;2023-03-14T00:18:10;11.77;;;3.63;;
20982;SDS011;10650;51.528;6.748;2023-03-14T00:20:37;9.95;;;3.60;;
20982;SDS011;10650;51.528;6.748;2023-03-14T00:23:05;9.93;;;3.80;;
20982;SDS011;10650;51.528;6.748;2023-03-14T00:25:33;11.65;;;4.18;;
20982;SDS011;10650;51.528;6.748;2023-03-14T00:28:02;7.78;;;3.38;;
20982;SDS011;10650;51.528;6.748;2023-03-14T00:30:30;8.02;;;2.88;;
20982;SDS011;10650;51.528;6.748;2023-03-14T00:32:59;8.55;;;3.15;;
20982;SDS011;10650;51.528;6.748;2023-03-14T00:35:26;11.52;;;3.63;;
20982;SDS011;10650;51.528;6.748;2023-03-14T00:37:54;6.80;;;2.70;;
20982;SDS011;10650;51.528;6.748;2023-03-14T00:40:22;9.07;;;3.08;;
20982;SDS011;10650;51.528;6.748;2023-03-14T00:42:49;7.35;;;2.45;;
20982;SDS011;10650;51.528;6.748;2023-03-14T00:45:17;8.38;;;3.65;;
20982;SDS011;10650;51.528;6.748;2023-03-14T00:47:45;10.57;;;3.58;;
20982;SDS011;10650;51.528;6.748;2023-03-14T00:50:14;11.65;;;4.70;;
20982;SDS011;10650;51.528;6.748;2023-03-14T00:52:42;10.90;;;4.28;;
20982;SDS011;10650;51.528;6.748;2023-03-14T00:55:09;12.35;;;4.90;;
20982;SDS011;10650;51.528;6.748;2023-03-14T00:57:37;9.50;;;4.13;;
20982;SDS011;10650;51.528;6.748;2023-03-14T01:00:05;6.70;;;2.70;;
20982;SDS011;10650;51.528;6.748;2023-03-14T01:02:37;5.60;;;2.38;;
20982;SDS011;10650;51.528;6.748;2023-03-14T01:05:05;9.90;;;2.60;;
20982;SDS011;10650;51.528;6.748;2023-03-14T01:07:37;6.55;;;2.30;;
20982;SDS011;10650;51.528;6.748;2023-03-14T01:10:06;7.95;;;2.33;;
20982;SDS011;10650;51.528;6.748;2023-03-14T01:12:34;6.80;;;2.40;;
20982;SDS011;10650;51.528;6.748;2023-03-14T01:15:02;8.27;;;2.92;;
20982;SDS011;10650;51.528;6.748;2023-03-14T01:17:31;8.77;;;3.05;;
20982;SDS011;10650;51.528;6.748;2023-03-14T01:19:59;8.80;;;2.30;;
20982;SDS011;10650;51.528;6.748;2023-03-14T01:22:27;6.38;;;2.50;;
20982;SDS011;10650;51.528;6.748;2023-03-14T01:24:56;6.43;;;2.70;;
20982;SDS011;10650;51.528;6.748;2023-03-14T01:27:23;7.60;;;2.42;;
20982;SDS011;10650;51.528;6.748;2023-03-14T01:29:51;7.68;;;2.28;;
20982;SDS011;10650;51.528;6.748;2023-03-14T01:32:19;5.88;;;2.10;;
20982;SDS011;10650;51.528;6.748;2023-03-14T01:34:47;3.92;;;2.03;;
20982;SDS011;10650;51.528;6.748;2023-03-14T01:37:15;7.85;;;2.05;;
20982;SDS011;10650;51.528;6.748;2023-03-14T01:39:43;8.27;;;2.25;;
20982;SDS011;10650;51.528;6.748;2023-03-14T01:42:12;6.68;;;1.90;;
20982;SDS011;10650;51.528;6.748;2023-03-14T01:44:47;6.13;;;1.83;;
20982;SDS011;10650;51.528;6.748;2023-03-14T01:47:15;4.40;;;1.88;;
20982;SDS011;10650;51.528;6.748;2023-03-14T01:49:43;8.23;;;2.35;;
20982;SDS011;10650;51.528;6.748;2023-03-14T01:52:15;6.60;;;2.28;;
20982;SDS011;10650;51.528;6.748;2023-03-14T01:54:46;6.68;;;2.47;;
20982;SDS011;10650;51.528;6.748;2023-03-14T01:57:20;6.43;;;2.53;;
20982;SDS011;10650;51.528;6.748;2023-03-14T01:59:53;8.70;;;3.10;;
20982;SDS011;10650;51.528;6.748;2023-03-14T02:02:26;6.45;;;2.42;;
20982;SDS011;10650;51.528;6.748;2023-03-14T02:04:54;6.82;;;2.33;;
20982;SDS011;10650;51.528;6.748;2023-03-14T02:07:24;6.90;;;2.83;;
20982;SDS011;10650;51.528;6.748;2023-03-14T02:09:56;7.32;;;3.00;;
20982;SDS011;10650;51.528;6.748;2023-03-14T02:12:27;12.10;;;3.80;;
20982;SDS011;10650;51.528;6.748;2023-03-14T02:14:55;7.55;;;3.17;;
20982;SDS011;10650;51.528;6.748;2023-03-14T02:17:23;6.05;;;2.72;;
20982;SDS011;10650;51.528;6.748;2023-03-14T02:20:03;7.47;;;2.50;;
20982;SDS011;10650;51.528;6.748;2023-03-14T02:22:38;7.47;;;2.67;;
20982;SDS011;10650;51.528;6.748;2023-03-14T02:25:10;6.40;;;2.35;;
20982;SDS011;10650;51.528;6.748;2023-03-14T02:27:43;8.35;;;2.30;;
20982;SDS011;10650;51.528;6.748;2023-03-14T02:30:12;7.88;;;2.72;;
20982;SDS011;10650;51.528;6.748;2023-03-14T02:32:43;6.53;;;2.40;;
20982;SDS011;10650;51.528;6.748;2023-03-14T02:35:14;6.25;;;2.40;;
20982;SDS011;10650;51.528;6.748;2023-03-14T02:37:46;10.00;;;2.70;;
20982;SDS011;10650;51.528;6.748;2023-03-14T02:40:16;5.43;;;2.85;;
20982;SDS011;10650;51.528;6.748;2023-03-14T02:42:45;11.00;;;3.00;;
20982;SDS011;10650;51.528;6.748;2023-03-14T02:45:26;6.95;;;3.15;;
20982;SDS011;10650;51.528;6.748;2023-03-14T02:48:10;9.23;;;3.88;;
20982;SDS011;10650;51.528;6.748;2023-03-14T02:50:41;14.60;;;4.00;;
20982;SDS011;10650;51.528;6.748;2023-03-14T02:53:11;10.20;;;3.97;;
20982;SDS011;10650;51.528;6.748;2023-03-14T02:55:44;13.82;;;4.00;;
20982;SDS011;10650;51.528;6.748;2023-03-14T02:58:14;10.35;;;3.72;;
20982;SDS011;10650;51.528;6.748;2023-03-14T03:00:43;11.65;;;4.25;;
20982;SDS011;10650;51.528;6.748;2023-03-14T03:03:11;11.45;;;4.90;;
20982;SDS011;10650;51.528;6.748;2023-03-14T03:05:39;11.88;;;4.95;;
20982;SDS011;10650;51.528;6.748;2023-03-14T03:08:07;10.40;;;4.18;;
20982;SDS011;10650;51.528;6.748;2023-03-14T03:10:35;10.82;;;4.35;;
20982;SDS011;10650;51.528;6.748;2023-03-14T03:13:03;11.23;;;4.70;;
20982;SDS011;10650;51.528;6.748;2023-03-14T03:15:32;12.55;;;5.20;;
20982;SDS011;10650;51.528;6.748;2023-03-14T03:18:00;10.52;;;5.13;;
20982;SDS011;10650;51.528;6.748;2023-03-14T03:20:28;13.57;;;5.00;;
20982;SDS011;10650;51.528;6.748;2023-03-14T03:22:56;12.55;;;4.45;;
20982;SDS011;10650;51.528;6.748;2023-03-14T03:25:23;9.43;;;4.68;;
20982;SDS011;10650;51.528;6.748;2023-03-14T03:27:51;11.77;;;4.65;;
20982;SDS011;10650;51.528;6.748;2023-03-14T03:30:20;10.60;;;4.07;;
20982;SDS011;10650;51.528;6.748;2023-03-14T03:32:49;13.25;;;5.55;;
20982;SDS011;10650;51.528;6.748;2023-03-14T03:35:17;11.15;;;4.50;;
20982;SDS011;10650;51.528;6.748;2023-03-14T03:37:45;11.63;;;4.78;;
20982;SDS011;10650;51.528;6.748;2023-03-14T03:40:12;12.27;;;4.07;;
20982;SDS011;10650;51.528;6.748;2023-03-14T03:42:40;11.38;;;3.90;;
20982;SDS011;10650;51.528;6.748;2023-03-14T03:45:08;9.73;;;4.03;;
20982;SDS011;10650;51.528;6.748;2023-03-14T03:47:36;11.70;;;3.20;;
20982;SDS011;10650;51.528;6.748;2023-03-14T03:50:06;11.93;;;3.17;;
20982;SDS011;10650;51.528;6.748;2023-03-14T03:52:35;9.65;;;3.20;;
20982;SDS011;10650;51.528;6.748;2023-03-14T03:55:03;8.95;;;4.95;;
20982;SDS011;10650;51.528;6.748;2023-03-14T03:57:31;13.52;;;5.97;;
20982;SDS011;10650;51.528;6.748;2023-03-14T03:59:58;9.07;;;4.30;;
20982;SDS011;10650;51.528;6.748;2023-03-14T04:02:26;9.90;;;4.35;;
20982;SDS011;10650;51.528;6.748;2023-03-14T04:04:54;10.95;;;4.03;;
20982;SDS011;10650;51.528;6.748;2023-03-14T04:07:23;12.18;;;3.80;;
20982;SDS011;10650;51.528;6.748;2023-03-14T04:09:51;12.60;;;5.18;;
20982;SDS011;10650;51.528;6.748;2023-03-14T04:12:20;14.18;;;5.93;;
20982;SDS011;10650;51.528;6.748;2023-03-14T04:14:47;14.82;;;6.95;;
20982;SDS011;10650;51.528;6.748;2023-03-14T04:17:15;17.58;;;6.95;;
20982;SDS011;10650;51.528;6.748;2023-03-14T04:19:43;16.77;;;7.93;;
20982;SDS011;10650;51.528;6.748;2023-03-14T04:22:10;15.50;;;7.18;;
20982;SDS011;10650;51.528;6.748;2023-03-14T04:24:39;14.07;;;7.68;;
20982;SDS011;10650;51.528;6.748;2023-03-14T04:27:07;13.50;;;7.45;;
20982;SDS011;10650;51.528;6.748;2023-03-14T04:29:35;15.70;;;7.40;;
20982;SDS011;10650;51.528;6.748;2023-03-14T04:32:02;11.73;;;6.07;;
20982;SDS011;10650;51.528;6.748;2023-03-14T04:34:30;10.40;;;3.95;;
20982;SDS011;10650;51.528;6.748;2023-03-14T04:36:58;4.40;;;1.83;;
20982;SDS011;10650;51.528;6.748;2023-03-14T04:39:26;6.65;;;2.20;;
20982;SDS011;10650;51.528;6.748;2023-03-14T04:41:55;8.38;;;1.90;;
20982;SDS011;10650;51.528;6.748;2023-03-14T04:44:22;5.63;;;1.90;;
20982;SDS011;10650;51.528;6.748;2023-03-14T04:46:50;7.03;;;2.35;;
20982;SDS011;10650;51.528;6.748;2023-03-14T04:49:18;5.28;;;2.22;;
20982;SDS011;10650;51.528;6.748;2023-03-14T04:51:46;8.43;;;2.53;;
20982;SDS011;10650;51.528;6.748;2023-03-14T04:54:13;5.07;;;1.50;;
20982;SDS011;10650;51.528;6.748;2023-03-14T04:56:41;8.98;;;2.00;;
20982;SDS011;10650;51.528;6.748;2023-03-14T04:59:10;3.40;;;1.52;;
20982;SDS011;10650;51.528;6.748;2023-03-14T05:01:38;2.55;;;1.30;;
20982;SDS011;10650;51.528;6.748;2023-03-14T05:04:07;3.38;;;1.40;;
20982;SDS011;10650;51.528;6.748;2023-03-14T05:06:35;3.75;;;1.55;;
20982;SDS011;10650;51.528;6.748;2023-03-14T05:09:03;8.23;;;3.00;;
20982;SDS011;10650;51.528;6.748;2023-03-14T05:11:31;5.32;;;1.77;;
20982;SDS011;10650;51.528;6.748;2023-03-14T05:13:59;6.15;;;2.28;;
20982;SDS011;10650;51.528;6.748;2023-03-14T05:16:28;6.65;;;2.78;;
20982;SDS011;10650;51.528;6.748;2023-03-14T05:18:56;6.00;;;2.03;;
20982;SDS011;10650;51.528;6.748;2023-03-14T05:21:24;7.57;;;1.80;;
20982;SDS011;10650;51.528;6.748;2023-03-14T05:23:51;5.90;;;1.85;;
20982;SDS011;10650;51.528;6.748;2023-03-14T05:26:19;4.40;;;1.73;;
20982;SDS011;10650;51.528;6.748;2023-03-14T05:28:47;4.43;;;2.10;;
20982;SDS011;10650;51.528;6.748;2023-03-14T05:31:14;4.10;;;1.90;;
20982;SDS011;10650;51.528;6.748;2023-03-14T05:33:43;4.47;;;1.65;;
20982;SDS011;10650;51.528;6.748;2023-03-14T05:36:11;4.85;;;1.70;;
20982;SDS011;10650;51.528;6.748;2023-03-14T05:38:39;7.28;;;2.67;;
20982;SDS011;10650;51.528;6.748;2023-03-14T05:41:07;5.00;;;2.35;;
20982;SDS011;10650;51.528;6.748;2023-03-14T05:43:34;3.60;;;1.33;;
20982;SDS011;10650;51.528;6.748;2023-03-14T05:46:03;5.25;;;1.58;;
20982;SDS011;10650;51.528;6.748;2023-03-14T05:48:31;3.50;;;1.60;;
20982;SDS011;10650;51.528;6.748;2023-03-14T05:51:00;4.43;;;1.88;;
20982;SDS011;10650;51.528;6.748;2023-03-14T05:53:28;3.95;;;1.92;;
20982;SDS011;10650;51.528;6.748;2023-03-14T05:55:56;6.03;;;2.53;;
20982;SDS011;10650;51.528;6.748;2023-03-14T05:58:24;6.45;;;2.72;;
20982;SDS011;10650;51.528;6.748;2023-03-14T06:00:52;5.93;;;3.03;;
20982;SDS011;10650;51.528;6.748;2023-03-14T06:03:20;6.40;;;3.03;;
20982;SDS011;10650;51.528;6.748;2023-03-14T06:05:49;5.80;;;3.30;;
20982;SDS011;10650;51.528;6.748;2023-03-14T06:08:19;7.07;;;3.40;;
20982;SDS011;10650;51.528;6.748;2023-03-14T06:10:46;8.52;;;3.80;;
20982;SDS011;10650;51.528;6.748;2023-03-14T06:13:14;8.10;;;3.53;;
20982;SDS011;10650;51.528;6.748;2023-03-14T06:15:42;7.35;;;3.40;;
20982;SDS011;10650;51.528;6.748;2023-03-14T06:18:10;9.00;;;4.13;;
20982;SDS011;10650;51.528;6.748;2023-03-14T06:20:38;6.25;;;4.15;;
20982;SDS011;10650;51.528;6.748;2023-03-14T06:23:06;6.85;;;3.60;;
20982;SDS011;10650;51.528;6.748;2023-03-14T06:25:36;5.05;;;2.63;;
20982;SDS011;10650;51.528;6.748;2023-03-14T06:28:04;6.90;;;2.80;;
20982;SDS011;10650;51.528;6.748;2023-03-14T06:30:32;7.03;;;2.80;;
20982;SDS011;10650;51.528;6.748;2023-03-14T06:33:00;3.88;;;2.88;;
20982;SDS011;10650;51.528;6.748;2023-03-14T06:35:27;4.63;;;2.50;;
20982;SDS011;10650;51.528;6.748;2023-03-14T06:37:55;2.92;;;2.20;;
20982;SDS011;10650;51.528;6.748;2023-03-14T06:40:23;2.85;;;2.10;;
20982;SDS011;10650;51.528;6.748;2023-03-14T06:42:52;4.18;;;1.90;;
20982;SDS011;10650;51.528;6.748;2023-03-14T06:45:19;4.97;;;2.25;;
20982;SDS011;10650;51.528;6.748;2023-03-14T06:47:47;3.67;;;2.15;;
20982;SDS011;10650;51.528;6.748;2023-03-14T06:50:15;3.60;;;1.60;;
20982;SDS011;10650;51.528;6.748;2023-03-14T06:52:43;5.38;;;2.40;;
20982;SDS011;10650;51.528;6.748;2023-03-14T06:55:14;2.97;;;2.10;;
20982;SDS011;10650;51.528;6.748;2023-03-14T06:57:42;3.47;;;1.90;;
20982;SDS011;10650;51.528;6.748;2023-03-14T07:00:13;3.63;;;1.80;;
20982;SDS011;10650;51.528;6.748;2023-03-14T07:02:41;1.60;;;1.50;;
20982;SDS011;10650;51.528;6.748;2023-03-14T07:05:09;2.17;;;1.85;;
20982;SDS011;10650;51.528;6.748;2023-03-14T07:07:37;2.67;;;1.70;;
20982;SDS011;10650;51.528;6.748;2023-03-14T07:10:05;3.10;;;1.60;;
20982;SDS011;10650;51.528;6.748;2023-03-14T07:12:35;2.65;;;1.60;;
20982;SDS011;10650;51.528;6.748;2023-03-14T07:15:03;3.17;;;1.90;;
20982;SDS011;10650;51.528;6.748;2023-03-14T07:17:52;2.92;;;2.30;;
20982;SDS011;10650;51.528;6.748;2023-03-14T07:20:20;4.95;;;2.58;;
20982;SDS011;10650;51.528;6.748;2023-03-14T07:22:47;4.03;;;2.55;;
20982;SDS011;10650;51.528;6.748;2023-03-14T07:25:16;3.67;;;2.00;;
20982;SDS011;10650;51.528;6.748;2023-03-14T07:27:44;2.67;;;1.90;;
20982;SDS011;10650;51.528;6.748;2023-03-14T07:30:13;2.80;;;2.10;;
20982;SDS011;10650;51.528;6.748;2023-03-14T07:32:41;2.45;;;1.70;;
20982;SDS011;10650;51.528;6.748;2023-03-14T07:35:10;2.53;;;1.63;;
20982;SDS011;10650;51.528;6.748;2023-03-14T07:37:38;2.47;;;2.10;;
20982;SDS011;10650;51.528;6.748;2023-03-14T07:40:06;3.33;;;1.98;;
20982;SDS011;10650;51.528;6.748;2023-03-14T07:42:36;2.67;;;1.80;;
20982;SDS011;10650;51.528;6.748;2023-03-14T07:45:04;2.67;;;1.70;;
20982;SDS011;10650;51.528;6.748;2023-03-14T07:47:33;3.13;;;2.10;;
20982;SDS011;10650;51.528;6.748;2023-03-14T07:50:01;2.65;;;1.98;;
20982;SDS011;10650;51.528;6.748;2023-03-14T07:52:30;3.22;;;1.90;;
20982;SDS011;10650;51.528;6.748;2023-03-14T07:54:58;3.53;;;2.00;;
20982;SDS011;10650;51.528;6.748;2023-03-14T07:57:26;6.63;;;5.85;;
20982;SDS011;10650;51.528;6.748;2023-03-14T07:59:54;2.33;;;1.92;;
20982;SDS011;10650;51.528;6.748;2023-03-14T08:02:21;3.00;;;2.30;;
20982;SDS011;10650;51.528;6.748;2023-03-14T08:04:50;3.28;;;2.60;;
20982;SDS011;10650;51.528;6.748;2023-03-14T08:07:18;3.38;;;2.50;;
20982;SDS011;10650;51.528;6.748;2023-03-14T08:09:47;4.10;;;2.72;;
20982;SDS011;10650;51.528;6.748;2023-03-14T08:12:14;4.07;;;2.83;;
20982;SDS011;10650;51.528;6.748;2023-03-14T08:14:43;2.83;;;2.53;;
20982;SDS011;10650;51.528;6.748;2023-03-14T08:17:10;2.60;;;2.35;;
20982;SDS011;10650;51.528;6.748;2023-03-14T08:19:38;1.92;;;1.83;;
20982;SDS011;10650;51.528;6.748;2023-03-14T08:22:07;2.20;;;2.00;;
20982;SDS011;10650;51.528;6.748;2023-03-14T08:24:35;2.03;;;1.80;;
20982;SDS011;10650;51.528;6.748;2023-03-14T08:27:04;3.38;;;1.98;;
20982;SDS011;10650;51.528;6.748;2023-03-14T08:29:35;1.75;;;1.65;;
20982;SDS011;10650;51.528;6.748;2023-03-14T08:32:03;1.80;;;1.70;;
20982;SDS011;10650;51.528;6.748;2023-03-14T08:34:32;1.90;;;1.67;;
20982;SDS011;10650;51.528;6.748;2023-03-14T08:37:00;1.85;;;1.75;;
20982;SDS011;10650;51.528;6.748;2023-03-14T08:39:36;2.33;;;2.03;;
20982;SDS011;10650;51.528;6.748;2023-03-14T08:42:05;2.45;;;2.25;;
20982;SDS011;10650;51.528;6.748;2023-03-14T08:44:33;3.15;;;2.90;;
20982;SDS011;10650;51.528;6.748;2023-03-14T08:47:00;2.88;;;2.38;;
20982;SDS011;10650;51.528;6.748;2023-03-14T08:49:28;3.63;;;3.30;;
20982;SDS011;10650;51.528;6.748;2023-03-14T08:51:56;2.53;;;2.33;;
20982;SDS011;10650;51.528;6.748;2023-03-14T08:54:24;3.33;;;2.50;;
20982;SDS011;10650;51.528;6.748;2023-03-14T08:56:52;2.63;;;2.42;;
20982;SDS011;10650;51.528;6.748;2023-03-14T08:59:21;2.22;;;2.13;;
20982;SDS011;10650;51.528;6.748;2023-03-14T09:01:49;2.65;;;2.45;;
20982;SDS011;10650;51.528;6.748;2023-03-14T09:04:17;2.30;;;1.60;;
20982;SDS011;10650;51.528;6.748;2023-03-14T09:06:45;1.20;;;0.98;;
20982;SDS011;10650;51.528;6.748;2023-03-14T09:09:13;0.65;;;0.65;;
20982;SDS011;10650;51.528;6.748;2023-03-14T09:11:40;2.33;;;1.00;;
20982;SDS011;10650;51.528;6.748;2023-03-14T09:14:08;0.82;;;0.77;;
20982;SDS011;10650;51.528;6.748;2023-03-14T09:16:37;1.33;;;1.00;;
20982;SDS011;10650;51.528;6.748;2023-03-14T09:19:05;1.10;;;0.98;;
20982;SDS011;10650;51.528;6.748;2023-03-14T09:21:33;2.13;;;1.25;;
20982;SDS011;10650;51.528;6.748;2023-03-14T09:24:00;1.38;;;0.80;;
20982;SDS011;10650;51.528;6.748;2023-03-14T09:26:28;1.77;;;1.52;;
20982;SDS011;10650;51.528;6.748;2023-03-14T09:28:56;2.17;;;1.80;;
20982;SDS011;10650;51.528;6.748;2023-03-14T09:31:24;1.73;;;1.38;;
20982;SDS011;10650;51.528;6.748;2023-03-14T09:33:53;1.90;;;1.50;;
20982;SDS011;10650;51.528;6.748;2023-03-14T09:36:21;3.35;;;1.98;;
20982;SDS011;10650;51.528;6.748;2023-03-14T09:38:48;3.30;;;2.03;;
20982;SDS011;10650;51.528;6.748;2023-03-14T09:41:17;3.05;;;1.75;;
20982;SDS011;10650;51.528;6.748;2023-03-14T09:43:49;8.45;;;4.40;;
20982;SDS011;10650;51.528;6.748;2023-03-14T09:46:20;2.70;;;2.00;;
20982;SDS011;10650;51.528;6.748;2023-03-14T09:48:48;3.38;;;2.13;;
20982;SDS011;10650;51.528;6.748;2023-03-14T09:51:17;3.55;;;2.58;;
20982;SDS011;10650;51.528;6.748;2023-03-14T09:53:49;3.42;;;2.28;;
20982;SDS011;10650;51.528;6.748;2023-03-14T09:56:18;2.10;;;1.90;;
20982;SDS011;10650;51.528;6.748;2023-03-14T09:58:48;1.70;;;1.60;;
20982;SDS011;10650;51.528;6.748;2023-03-14T10:01:20;1.80;;;1.38;;
20982;SDS011;10650;51.528;6.748;2023-03-14T10:03:53;1.90;;;1.50;;
20982;SDS011;10650;51.528;6.748;2023-03-14T10:06:25;1.75;;;1.50;;
20982;SDS011;10650;51.528;6.748;2023-03-14T10:11:23;1.58;;;1.30;;
20982;SDS011;10650;51.528;6.748;2023-03-14T10:14:02;2.00;;;1.20;;
20982;SDS011;10650;51.528;6.748;2023-03-14T10:16:33;1.30;;;1.10;;
20982;SDS011;10650;51.528;6.748;2023-03-14T10:19:03;2.60;;;1.27;;
20982;SDS011;10650;51.528;6.748;2023-03-14T10:21:37;4.97;;;1.40;;
20982;SDS011;10650;51.528;6.748;2023-03-14T10:24:10;1.92;;;1.20;;
20982;SDS011;10650;51.528;6.748;2023-03-14T10:26:47;2.67;;;1.25;;
20982;SDS011;10650;51.528;6.748;2023-03-14T10:29:17;1.60;;;1.00;;
20982;SDS011;10650;51.528;6.748;2023-03-14T10:31:50;2.35;;;1.20;;
20982;SDS011;10650;51.528;6.748;2023-03-14T10:34:24;3.30;;;1.30;;
20982;SDS011;10650;51.528;6.748;2023-03-14T10:36:54;1.85;;;1.33;;
20982;SDS011;10650;51.528;6.748;2023-03-14T10:39:25;3.92;;;1.80;;
20982;SDS011;10650;51.528;6.748;2023-03-14T10:42:01;3.58;;;1.23;;
20982;SDS011;10650;51.528;6.748;2023-03-14T10:44:32;1.80;;;1.13;;
20982;SDS011;10650;51.528;6.748;2023-03-14T10:47:02;3.47;;;1.10;;
20982;SDS011;10650;51.528;6.748;2023-03-14T10:49:34;2.58;;;1.10;;
20982;SDS011;10650;51.528;6.748;2023-03-14T10:52:14;2.40;;;1.02;;
20982;SDS011;10650;51.528;6.748;2023-03-14T10:54:46;1.45;;;1.05;;
20982;SDS011;10650;51.528;6.748;2023-03-14T10:57:18;2.45;;;1.20;;
20982;SDS011;10650;51.528;6.748;2023-03-14T10:59:46;2.10;;;0.90;;
20982;SDS011;10650;51.528;6.748;2023-03-14T11:02:20;2.20;;;1.10;;
20982;SDS011;10650;51.528;6.748;2023-03-14T11:05:01;2.33;;;1.08;;
20982;SDS011;10650;51.528;6.748;2023-03-14T11:07:37;2.75;;;1.08;;
20982;SDS011;10650;51.528;6.748;2023-03-14T11:10:11;2.30;;;1.10;;
20982;SDS011;10650;51.528;6.748;2023-03-14T11:12:51;3.83;;;0.90;;
20982;SDS011;10650;51.528;6.748;2023-03-14T11:15:34;2.38;;;1.00;;
20982;SDS011;10650;51.528;6.748;2023-03-14T11:18:16;4.38;;;1.20;;
20982;SDS011;10650;51.528;6.748;2023-03-14T11:20:59;4.45;;;1.30;;
20982;SDS011;10650;51.528;6.748;2023-03-14T11:23:39;1.42;;;0.90;;
20982;SDS011;10650;51.528;6.748;2023-03-14T11:26:18;2.47;;;1.10;;
20982;SDS011;10650;51.528;6.748;2023-03-14T11:28:55;2.40;;;1.20;;
20982;SDS011;10650;51.528;6.748;2023-03-14T11:31:26;1.40;;;0.87;;
20982;SDS011;10650;51.528;6.748;2023-03-14T11:33:56;2.03;;;0.93;;
20982;SDS011;10650;51.528;6.748;2023-03-14T11:36:33;1.75;;;1.00;;
20982;SDS011;10650;51.528;6.748;2023-03-14T11:39:08;2.00;;;1.27;;
20982;SDS011;10650;51.528;6.748;2023-03-14T11:41:41;3.63;;;1.27;;
20982;SDS011;10650;51.528;6.748;2023-03-14T11:44:14;4.75;;;1.38;;
20982;SDS011;10650;51.528;6.748;2023-03-14T11:46:47;2.63;;;1.10;;
20982;SDS011;10650;51.528;6.748;2023-03-14T11:49:23;4.65;;;1.30;;
20982;SDS011;10650;51.528;6.748;2023-03-14T11:51:57;3.72;;;1.20;;
20982;SDS011;10650;51.528;6.748;2023-03-14T11:54:33;4.03;;;1.20;;
20982;SDS011;10650;51.528;6.748;2023-03-14T11:57:10;3.50;;;1.40;;
20982;SDS011;10650;51.528;6.748;2023-03-14T11:59:44;3.63;;;1.30;;
20982;SDS011;10650;51.528;6.748;2023-03-14T12:02:20;3.10;;;1.40;;
20982;SDS011;10650;51.528;6.748;2023-03-14T12:05:03;4.60;;;1.58;;
20982;SDS011;10650;51.528;6.748;2023-03-14T12:07:57;5.28;;;1.42;;
20982;SDS011;10650;51.528;6.748;2023-03-14T12:10:48;5.68;;;1.50;;
20982;SDS011;10650;51.528;6.748;2023-03-14T12:13:18;3.60;;;1.40;;
20982;SDS011;10650;51.528;6.748;2023-03-14T12:15:47;4.13;;;1.50;;
20982;SDS011;10650;51.528;6.748;2023-03-14T12:18:24;6.55;;;1.65;;
20982;SDS011;10650;51.528;6.748;2023-03-14T12:20:56;7.25;;;1.75;;
20982;SDS011;10650;51.528;6.748;2023-03-14T12:23:25;8.48;;;2.00;;
20982;SDS011;10650;51.528;6.748;2023-03-14T12:26:13;6.55;;;1.80;;
20982;SDS011;10650;51.528;6.748;2023-03-14T12:28:43;8.10;;;1.95;;
20982;SDS011;10650;51.528;6.748;2023-03-14T12:34:04;9.85;;;2.30;;
20982;SDS011;10650;51.528;6.748;2023-03-14T12:36:59;9.25;;;2.40;;
20982;SDS011;10650;51.528;6.748;2023-03-14T12:39:35;9.30;;;2.08;;
20982;SDS011;10650;51.528;6.748;2023-03-14T12:42:12;8.63;;;2.45;;
20982;SDS011;10650;51.528;6.748;2023-03-14T12:44:43;10.98;;;2.40;;
20982;SDS011;10650;51.528;6.748;2023-03-14T12:50:20;7.88;;;2.53;;
20982;SDS011;10650;51.528;6.748;2023-03-14T12:56:07;12.25;;;2.83;;
20982;SDS011;10650;51.528;6.748;2023-03-14T12:58:42;11.15;;;2.97;;
20982;SDS011;10650;51.528;6.748;2023-03-14T13:01:15;12.77;;;2.90;;
20982;SDS011;10650;51.528;6.748;2023-03-14T13:03:45;14.73;;;2.88;;
20982;SDS011;10650;51.528;6.748;2023-03-14T13:09:45;14.60;;;2.85;;
20982;SDS011;10650;51.528;6.748;2023-03-14T13:14:52;13.55;;;3.22;;
20982;SDS011;10650;51.528;6.748;2023-03-14T13:17:22;17.70;;;3.70;;
20982;SDS011;10650;51.528;6.748;2023-03-14T13:20:02;17.73;;;3.30;;
20982;SDS011;10650;51.528;6.748;2023-03-14T13:22:37;13.45;;;3.08;;
20982;SDS011;10650;51.528;6.748;2023-03-14T13:25:05;12.98;;;3.00;;
20982;SDS011;10650;51.528;6.748;2023-03-14T13:27:36;12.88;;;3.42;;
20982;SDS011;10650;51.528;6.748;2023-03-14T13:30:11;14.95;;;3.55;;
20982;SDS011;10650;51.528;6.748;2023-03-14T13:32:43;15.18;;;3.40;;
20982;SDS011;10650;51.528;6.748;2023-03-14T13:35:14;18.67;;;4.20;;
20982;SDS011;10650;51.528;6.748;2023-03-14T13:37:43;13.00;;;3.05;;
20982;SDS011;10650;51.528;6.748;2023-03-14T13:40:23;17.05;;;3.70;;
20982;SDS011;10650;51.528;6.748;2023-03-14T13:43:01;16.87;;;3.50;;
20982;SDS011;10650;51.528;6.748;2023-03-14T13:45:42;16.00;;;3.38;;
20982;SDS011;10650;51.528;6.748;2023-03-14T13:48:12;18.27;;;3.63;;
20982;SDS011;10650;51.528;6.748;2023-03-14T13:50:49;16.63;;;3.22;;
20982;SDS011;10650;51.528;6.748;2023-03-14T13:53:20;13.80;;;3.40;;
20982;SDS011;10650;51.528;6.748;2023-03-14T13:55:49;13.60;;;3.15;;
20982;SDS011;10650;51.528;6.748;2023-03-14T13:58:21;15.85;;;3.22;;
20982;SDS011;10650;51.528;6.748;2023-03-14T14:00:57;11.13;;;2.92;;
20982;SDS011;10650;51.528;6.748;2023-03-14T14:03:27;8.20;;;2.30;;
20982;SDS011;10650;51.528;6.748;2023-03-14T14:05:57;9.10;;;2.30;;
20982;SDS011;10650;51.528;6.748;2023-03-14T14:08:25;9.98;;;2.22;;
20982;SDS011;10650;51.528;6.748;2023-03-14T14:10:55;8.60;;;2.40;;
20982;SDS011;10650;51.528;6.748;2023-03-14T14:13:27;11.32;;;2.80;;
20982;SDS011;10650;51.528;6.748;2023-03-14T14:16:02;12.63;;;2.63;;
20982;SDS011;10650;51.528;6.748;2023-03-14T14:18:31;8.30;;;2.47;;
20982;SDS011;10650;51.528;6.748;2023-03-14T14:21:00;10.02;;;2.42;;
20982;SDS011;10650;51.528;6.748;2023-03-14T14:23:30;9.70;;;2.58;;
20982;SDS011;10650;51.528;6.748;2023-03-14T14:26:01;5.97;;;1.80;;
20982;SDS011;10650;51.528;6.748;2023-03-14T14:28:35;7.15;;;2.00;;
20982;SDS011;10650;51.528;6.748;2023-03-14T14:31:17;9.95;;;2.40;;
20982;SDS011;10650;51.528;6.748;2023-03-14T14:33:53;5.85;;;1.98;;
20982;SDS011;10650;51.528;6.748;2023-03-14T14:36:23;7.28;;;1.88;;
20982;SDS011;10650;51.528;6.748;2023-03-14T14:38:53;5.35;;;2.00;;
20982;SDS011;10650;51.528;6.748;2023-03-14T14:41:28;7.93;;;1.83;;
20982;SDS011;10650;51.528;6.748;2023-03-14T14:43:58;7.53;;;1.88;;
20982;SDS011;10650;51.528;6.748;2023-03-14T14:46:30;8.52;;;2.10;;
20982;SDS011;10650;51.528;6.748;2023-03-14T14:49:02;6.35;;;1.92;;
20982;SDS011;10650;51.528;6.748;2023-03-14T14:54:04;5.40;;;2.03;;
20982;SDS011;10650;51.528;6.748;2023-03-14T14:56:38;7.43;;;2.00;;
20982;SDS011;10650;51.528;6.748;2023-03-14T14:59:17;6.50;;;2.00;;
20982;SDS011;10650;51.528;6.748;2023-03-14T15:01:49;7.17;;;1.90;;
20982;SDS011;10650;51.528;6.748;2023-03-14T15:04:17;7.85;;;2.33;;
20982;SDS011;10650;51.528;6.748;2023-03-14T15:06:46;5.78;;;1.98;;
20982;SDS011;10650;51.528;6.748;2023-03-14T15:09:16;7.95;;;1.95;;
20982;SDS011;10650;51.528;6.748;2023-03-14T15:11:44;3.78;;;1.50;;
20982;SDS011;10650;51.528;6.748;2023-03-14T15:14:12;9.05;;;2.15;;
20982;SDS011;10650;51.528;6.748;2023-03-14T15:16:39;8.43;;;2.10;;
20982;SDS011;10650;51.528;6.748;2023-03-14T15:19:12;5.97;;;1.65;;
20982;SDS011;10650;51.528;6.748;2023-03-14T15:21:50;5.53;;;1.95;;
20982;SDS011;10650;51.528;6.748;2023-03-14T15:24:18;7.05;;;1.67;;